Quick Links (Output Below):   Max & Min Temps   /   Climate Reports   /   Zone Forecasts
River Forecasts   /   Forestry Forecasts   /   Aviation Forecasts   /   Radars   /   Features

Terminal Aerodrome Forecast (El Dorado)

Pick a Site:
Arkadelphia | El Dorado | Fayetteville | Fort Smith | Harrison | Highfill | Hot Springs | Jonesboro
Little Rock | Monticello | Mountain Home | Pine Bluff | Texarkana
 Forecast 

KELD 031723Z 0318/0418 15009KT P6SM FEW050
     FM040100 16003KT P6SM SKC=


 Latest METARs (Observations) 
How to Decode METARs
22Z KELD 032153Z AUTO 17009KT 10SM FEW060 28/13 A3003 RMK AO2 SLP165
         T02780133
         
21Z KELD 032053Z AUTO 19011G16KT 10SM FEW065 FEW080 28/13 A3003 RMK
         AO2 SLP168 T02780128 58013
         
20Z KELD 031953Z AUTO 22007KT 10SM FEW060 28/13 A3005 RMK AO2 SLP173
         T02780133
         
19Z KELD 031853Z AUTO 20010KT 10SM FEW055 BKN075 27/14 A3006 RMK AO2
         SLP177 T02670144
         
18Z KELD 031753Z AUTO 22005KT 10SM FEW050 27/13 A3007 RMK AO2 SLP180
         T02720133 10272 20139 58002
         
17Z KELD 031653Z AUTO 15009KT 130V200 10SM CLR 26/13 A3008 RMK AO2
         SLP184 T02610133
         
16Z KELD 031553Z AUTO 21005KT 10SM CLR 24/14 A3009 RMK AO2 SLP187
         T02440139
         
15Z KELD 031453Z AUTO 26006KT 10SM CLR 22/14 A3008 RMK AO2 SLP183
         T02220139 51011
         
14Z KELD 031353Z AUTO 20005KT 10SM CLR 19/14 A3007 RMK AO2 SLP181
         T01940139
         
13Z KELD 031253Z AUTO 17004KT 10SM CLR 16/12 A3006 RMK AO2 SLP176
         T01610122
         
***** Today's Observations (Above) *****


Back to Main Page
http://www.srh.noaa.gov/lzk/qfcst.php

USA.gov is the U.S. government's official web portal to all federal, state and local government web resources and services.